Regina Oldendorff — CQIB2 — position and weather

sailwx.info

Track history (hours):
 
Tides and Currents Weather Stations Pressure Air Temp Water Temp Dewpoint Dewpoint Depression Visibility Wind Speed Wind Dir Waves Ship Positions

Regina Oldendorff

Last reported at 2017-Dec-17 00:34 UTC. Time now 2017-Dec-18 12:52 UTC.
Position N 36°51' W 075°49'.

Length 260 m; draft 14.4 m.

Type: Cargo ship. MMSI: 255805910.

Date/timePositionNaut miles runAvg speedWind from/ knotsBaromVisibWave heightAir tempDewpointWater temp
2017-Dec-17 00:34N 36°51' W 075°49'1 6.5
2017-Dec-17 00:23N 36°51' W 075°51'2 6.1
2017-Dec-17 00:00N 36°53' W 075°53'3 5.9
2017-Dec-16 23:30N 36°55' W 075°55'3 5.9
2017-Dec-16 23:00N 36°56' W 075°59'3 6.0
2017-Dec-16 22:30N 36°59' W 076°00'3 6.3
2017-Dec-16 22:00N 37°01' W 076°03'3 7.0
2017-Dec-16 21:30N 37°04' W 076°06'56 8.1
2017-Dec-16 14:33N 38°00' W 076°12'311.2
2017-Dec-16 14:15N 38°03' W 076°13'4311.7
2017-Dec-16 10:34N 38°45' W 076°26'112.1
2017-Dec-16 10:30N 38°46' W 076°26'611.7
2017-Dec-16 10:00N 38°52' W 076°24'611.4
2017-Dec-16 09:30N 38°57' W 076°23'4 8.4
2017-Dec-16 09:00N 39°01' W 076°23'4 7.6
2017-Dec-16 08:30N 39°05' W 076°24'3 6.5
2017-Dec-16 08:00N 39°08' W 076°24'4 7.3
2017-Dec-16 07:30N 39°11' W 076°27'4 7.4
2017-Dec-16 07:00N 39°13' W 076°32'3 5.8
2017-Dec-16 06:30N 39°15' W 076°34'0 0.5
2017-Dec-16 06:00N 39°15' W 076°34'0 0.0
2017-Dec-16 05:30N 39°15' W 076°34'0 0.0
2017-Dec-16 05:00N 39°15' W 076°34'0 0.0
2017-Dec-16 04:30N 39°15' W 076°34'0 0.0
2017-Dec-16 04:00N 39°15' W 076°34'0 0.0
2017-Dec-16 03:30N 39°15' W 076°34'0 0.0
2017-Dec-16 03:00N 39°15' W 076°34'0 0.0
2017-Dec-16 02:30N 39°15' W 076°34'0 0.0
2017-Dec-16 02:00N 39°15' W 076°34'0 0.0
2017-Dec-16 01:30N 39°15' W 076°34'0 0.0
2017-Dec-16 01:00N 39°15' W 076°34'0 0.0
2017-Dec-16 00:30N 39°15' W 076°34'0 0.0
2017-Dec-16 00:00N 39°15' W 076°34'0 0.0
2017-Dec-15 23:27N 39°15' W 076°34'0 0.0
2017-Dec-15 23:00N 39°15' W 076°34'0 0.0
2017-Dec-15 22:30N 39°15' W 076°34'0 0.0
2017-Dec-15 22:00N 39°15' W 076°34'0 0.0
2017-Dec-15 21:30N 39°15' W 076°34'0 0.0
2017-Dec-15 21:00N 39°15' W 076°34'0 0.0
2017-Dec-15 20:30N 39°15' W 076°34'0 0.0
2017-Dec-15 20:00N 39°15' W 076°34'0 0.0
2017-Dec-15 19:30N 39°15' W 076°34'0 0.0
2017-Dec-15 19:00N 39°15' W 076°34'0 0.0
2017-Dec-15 18:30N 39°15' W 076°34'0 0.0
2017-Dec-15 18:00N 39°15' W 076°34'0 0.0
2017-Dec-15 17:30N 39°15' W 076°34'0 0.0
2017-Dec-15 17:00N 39°15' W 076°34'0 0.0
2017-Dec-15 16:30N 39°15' W 076°34'0 0.0
2017-Dec-15 16:00N 39°15' W 076°34'0 0.0
2017-Dec-15 15:30N 39°15' W 076°34'0 0.0
2017-Dec-15 15:00N 39°15' W 076°34'0 0.0
2017-Dec-15 14:30N 39°15' W 076°34'0 0.0
2017-Dec-15 14:00N 39°15' W 076°34'0 0.0
2017-Dec-15 13:30N 39°15' W 076°34'0 0.0
2017-Dec-15 13:00N 39°15' W 076°34'0 0.0
2017-Dec-15 12:30N 39°15' W 076°34'0 0.0
2017-Dec-15 12:00N 39°15' W 076°34'0 0.0
2017-Dec-15 11:30N 39°15' W 076°34'0 0.0
2017-Dec-15 11:00N 39°15' W 076°34'0 0.0
2017-Dec-15 10:30N 39°15' W 076°34'0 0.0
2017-Dec-15 10:00N 39°15' W 076°34'0 0.0
2017-Dec-15 09:30N 39°15' W 076°34'0 0.0
2017-Dec-15 09:00N 39°15' W 076°34'0 0.0
2017-Dec-15 08:30N 39°15' W 076°34'0 0.0
2017-Dec-15 08:00N 39°15' W 076°34'0 0.0
2017-Dec-15 07:30N 39°15' W 076°34'0 0.0
2017-Dec-15 07:00N 39°15' W 076°34'0 0.0
2017-Dec-15 06:30N 39°15' W 076°34'0 0.0
2017-Dec-15 06:00N 39°15' W 076°34'0 0.0
2017-Dec-15 05:30N 39°15' W 076°34'0 0.0
2017-Dec-15 05:00N 39°15' W 076°34'0 0.0
2017-Dec-15 04:30N 39°15' W 076°34'0 0.0
2017-Dec-15 04:00N 39°15' W 076°34'0 0.0
2017-Dec-15 02:30N 39°15' W 076°34'0 0.0
2017-Dec-15 01:00N 39°15' W 076°34'0 0.0
2017-Dec-15 00:30N 39°15' W 076°34'0 0.0
2017-Dec-14 18:30N 39°15' W 076°34'0 0.0
2017-Dec-14 18:00N 39°15' W 076°34'0 0.0
2017-Dec-14 17:30N 39°15' W 076°34'0 0.0
2017-Dec-14 17:00N 39°15' W 076°34'0 0.0
2017-Dec-14 16:30N 39°15' W 076°34'0 0.0
2017-Dec-14 16:00N 39°15' W 076°34'0 0.0
2017-Dec-14 15:00N 39°15' W 076°34'0 0.0
2017-Dec-14 14:30N 39°15' W 076°34'0 0.0
2017-Dec-14 14:00N 39°15' W 076°34'0 0.0
2017-Dec-14 13:30N 39°15' W 076°34'0 0.0
2017-Dec-14 13:00N 39°15' W 076°34'0 0.0
2017-Dec-14 12:30N 39°15' W 076°34'0 0.0
2017-Dec-14 12:00N 39°15' W 076°34'0 0.0
2017-Dec-14 11:30N 39°15' W 076°34'0 0.4
2017-Dec-14 11:00N 39°15' W 076°34'2 3.1
2017-Dec-14 10:31N 39°14' W 076°33'3 6.5
2017-Dec-14 10:00N 39°12' W 076°30'612.1
2017-Dec-14 09:31N 39°08' W 076°24'713.3
2017-Dec-14 09:01N 39°01' W 076°22'714.1
2017-Dec-14 08:30N 38°54' W 076°24'2 4.7
2017-Dec-14 08:00N 38°52' W 076°25'0 0.1
2017-Dec-14 07:30N 38°52' W 076°25'0 0.0
2017-Dec-14 07:00N 38°52' W 076°25'0 0.0
2017-Dec-14 06:30N 38°52' W 076°25'0 0.0
2017-Dec-14 06:00N 38°52' W 076°25'0 0.0
2017-Dec-14 05:30N 38°52' W 076°25'0 0.0
2017-Dec-14 05:00N 38°52' W 076°25'0 0.0
2017-Dec-14 04:30N 38°52' W 076°25'0 0.0
2017-Dec-14 04:00N 38°52' W 076°25'0 0.0
2017-Dec-14 03:30N 38°52' W 076°25'0 0.0
2017-Dec-14 03:00N 38°52' W 076°25'0 0.0
2017-Dec-14 02:30N 38°52' W 076°25'0 0.0
2017-Dec-14 02:00N 38°52' W 076°25'0 0.0
2017-Dec-14 01:30N 38°52' W 076°25'0 0.1
2017-Dec-14 01:00N 38°52' W 076°25'0 0.1
2017-Dec-14 00:30N 38°52' W 076°25'0 0.0
2017-Dec-14 00:00N 38°52' W 076°25'0 0.0
2017-Dec-13 23:30N 38°52' W 076°25'0 0.1
2017-Dec-13 23:00N 38°52' W 076°25'0 0.0
2017-Dec-13 22:30N 38°52' W 076°25'0 0.0
2017-Dec-13 22:00N 38°52' W 076°25'0 0.1
2017-Dec-13 21:30N 38°52' W 076°25'0 0.1
2017-Dec-13 21:00N 38°52' W 076°25'0 0.0
2017-Dec-13 20:30N 38°52' W 076°25'0 0.1
2017-Dec-13 20:00N 38°52' W 076°25'0 0.0
2017-Dec-13 19:27N 38°52' W 076°25'0 0.1
2017-Dec-13 19:00N 38°52' W 076°25'0 0.0
2017-Dec-13 18:30N 38°52' W 076°25'0 0.1
2017-Dec-13 18:00N 38°52' W 076°25'0 0.0
2017-Dec-13 17:30N 38°52' W 076°25'0 0.0
2017-Dec-13 17:00N 38°52' W 076°25'0 0.0
2017-Dec-13 16:30N 38°52' W 076°25'0 0.1
2017-Dec-13 16:00N 38°52' W 076°25'0 0.0
2017-Dec-13 15:30N 38°52' W 076°25'0 0.0
2017-Dec-13 15:00N 38°52' W 076°25'0 0.1
2017-Dec-13 14:27N 38°52' W 076°25'0 0.0
2017-Dec-13 14:00N 38°52' W 076°25'0 0.0
2017-Dec-13 13:30N 38°52' W 076°25'0 0.1
2017-Dec-13 13:00N 38°52' W 076°25'0 0.0
2017-Dec-13 12:27N 38°52' W 076°25'0 0.0
2017-Dec-13 11:54N 38°52' W 076°25'0 0.0
2017-Dec-13 11:27N 38°52' W 076°25'0 0.0
2017-Dec-13 11:00N 38°52' W 076°25'0 0.0
2017-Dec-13 10:30N 38°52' W 076°25'0 0.0
2017-Dec-13 09:57N 38°52' W 076°25'0 0.0
2017-Dec-13 09:27N 38°52' W 076°25'0 0.0
2017-Dec-13 08:54N 38°52' W 076°25'0 0.0
2017-Dec-13 08:30N 38°52' W 076°25'0 0.0
2017-Dec-13 08:00N 38°52' W 076°25'0 0.0
2017-Dec-13 07:30N 38°52' W 076°25'0 0.0
2017-Dec-13 07:00N 38°52' W 076°25'0 0.0
2017-Dec-13 06:30N 38°52' W 076°25'0 0.0
2017-Dec-13 06:00N 38°52' W 076°25'0 0.0
2017-Dec-13 05:30N 38°52' W 076°25'0 0.0
2017-Dec-13 05:00N 38°52' W 076°25'0 0.0
2017-Dec-13 04:30N 38°52' W 076°25'0 0.0
2017-Dec-13 04:00N 38°52' W 076°25'0 0.0
2017-Dec-13 03:24N 38°52' W 076°25'0 0.1
2017-Dec-13 03:00N 38°52' W 076°25'0 0.0
2017-Dec-13 02:30N 38°52' W 076°25'0 0.0
2017-Dec-13 02:00N 38°52' W 076°25'0 0.0
2017-Dec-13 01:30N 38°52' W 076°25'0 0.0
2017-Dec-13 00:54N 38°52' W 076°25'0 0.0
2017-Dec-13 00:30N 38°52' W 076°25'0 0.0
2017-Dec-13 00:00N 38°52' W 076°25'0 0.0
2017-Dec-12 23:30N 38°52' W 076°25'0 0.0
2017-Dec-12 23:00N 38°52' W 076°25'0 0.0
2017-Dec-12 22:30N 38°52' W 076°25'0 0.0
2017-Dec-12 22:00N 38°52' W 076°25'0 0.1
2017-Dec-12 21:30N 38°52' W 076°25'0 0.0
2017-Dec-12 21:00N 38°52' W 076°25'0 0.1
2017-Dec-12 20:30N 38°52' W 076°25'0 0.1
2017-Dec-12 20:00N 38°52' W 076°25'0 0.0
2017-Dec-12 19:30N 38°52' W 076°25'0 0.2
2017-Dec-12 19:00N 38°52' W 076°25'0 0.2
2017-Dec-12 18:30N 38°52' W 076°25'0 0.0
2017-Dec-12 18:00N 38°52' W 076°25'0 0.0
2017-Dec-12 17:30N 38°52' W 076°25'0 0.0
2017-Dec-12 17:00N 38°52' W 076°25'0 0.0
2017-Dec-12 16:30N 38°52' W 076°25'0 0.0
2017-Dec-12 16:00N 38°52' W 076°25'0 0.0
2017-Dec-12 15:30N 38°52' W 076°25'0 0.0
2017-Dec-12 15:00N 38°52' W 076°25'0 0.1
2017-Dec-12 14:30N 38°52' W 076°25'0 0.1
2017-Dec-12 14:00N 38°52' W 076°25'0 0.0
2017-Dec-12 13:30N 38°52' W 076°25'0 0.0
2017-Dec-12 13:00N 38°52' W 076°25'0 0.1
2017-Dec-12 12:30N 38°52' W 076°25'0 0.0
2017-Dec-12 12:00N 38°52' W 076°25'0 0.0
2017-Dec-12 11:30N 38°52' W 076°25'0 0.0
2017-Dec-12 11:00N 38°52' W 076°25'0 0.0
2017-Dec-12 10:30N 38°52' W 076°25'0 0.0
2017-Dec-12 10:00N 38°52' W 076°25'0 0.0
2017-Dec-12 09:30N 38°52' W 076°25'0 0.0
2017-Dec-12 09:00N 38°52' W 076°25'0 0.0
2017-Dec-12 08:30N 38°52' W 076°25'0 0.0
2017-Dec-12 08:00N 38°52' W 076°25'0 0.0
2017-Dec-12 07:30N 38°52' W 076°25'0 0.0
2017-Dec-12 07:00N 38°52' W 076°25'0 0.0
2017-Dec-12 06:30N 38°52' W 076°25'0 0.0
2017-Dec-12 06:00N 38°52' W 076°25'0 0.0
2017-Dec-12 05:30N 38°52' W 076°25'0 0.0
2017-Dec-12 05:00N 38°52' W 076°25'0 0.0
2017-Dec-12 04:30N 38°52' W 076°25'0 0.0
2017-Dec-12 04:00N 38°52' W 076°25'0 0.0
2017-Dec-12 03:30N 38°52' W 076°25'0 0.0
2017-Dec-12 03:00N 38°52' W 076°25'0 0.0
2017-Dec-12 02:30N 38°52' W 076°25'0 0.0
2017-Dec-12 01:57N 38°52' W 076°25'0 0.2
2017-Dec-12 01:30N 38°52' W 076°25'0 0.1
2017-Dec-12 01:00N 38°52' W 076°25'0 0.0
2017-Dec-12 00:30N 38°52' W 076°25'0 0.1
2017-Dec-12 00:00N 38°52' W 076°25'0 0.1
2017-Dec-11 23:24N 38°52' W 076°25'0 0.1
2017-Dec-11 23:00N 38°52' W 076°25'0 0.2
2017-Dec-11 22:30N 38°52' W 076°25'0 0.1
2017-Dec-11 21:45N 38°52' W 076°25'0 0.1
2017-Dec-11 21:30N 38°52' W 076°25'0 0.1
2017-Dec-11 21:00N 38°52' W 076°25'0 0.1
2017-Dec-11 20:30N 38°52' W 076°25'0 0.1
2017-Dec-11 20:00N 38°52' W 076°25'0 0.1
2017-Dec-11 19:30N 38°52' W 076°25'0 0.1
2017-Dec-11 19:00N 38°52' W 076°25'0 0.1
2017-Dec-11 18:30N 38°52' W 076°25'0 0.0
2017-Dec-11 18:00N 38°52' W 076°25'0 0.0
2017-Dec-11 17:30N 38°52' W 076°25'0 0.0
2017-Dec-11 17:00N 38°52' W 076°25'0 0.1
2017-Dec-11 16:30N 38°52' W 076°25'0 0.1
2017-Dec-11 16:00N 38°52' W 076°25'0 0.3
2017-Dec-11 15:30N 38°52' W 076°25'0 0.2
2017-Dec-11 14:57N 38°52' W 076°25'0 0.1
2017-Dec-11 14:21N 38°52' W 076°25'0 0.0
2017-Dec-11 13:59N 38°52' W 076°25'0 0.0
2017-Dec-11 13:21N 38°52' W 076°25'0 0.1
2017-Dec-11 12:57N 38°52' W 076°25'0 0.0
2017-Dec-11 12:30N 38°52' W 076°25'0 0.0
2017-Dec-11 12:00N 38°52' W 076°25'0 0.0
2017-Dec-11 11:30N 38°52' W 076°25'0 0.0
2017-Dec-11 10:57N 38°52' W 076°25'0 0.0
2017-Dec-11 10:24N 38°52' W 076°25'0 0.0
2017-Dec-11 09:54N 38°52' W 076°25'0 0.0
2017-Dec-11 09:30N 38°52' W 076°25'0 0.0
2017-Dec-11 08:57N 38°52' W 076°25'0 0.1
2017-Dec-11 08:30N 38°52' W 076°25'0 0.2
2017-Dec-11 07:59N 38°52' W 076°25'0 0.1
2017-Dec-11 07:29N 38°52' W 076°25'0 0.2
2017-Dec-11 06:59N 38°52' W 076°25'0 0.0
2017-Dec-11 06:30N 38°52' W 076°25'0 0.1
2017-Dec-11 06:00N 38°52' W 076°25'0 0.0
2017-Dec-11 05:29N 38°52' W 076°25'0 0.0
2017-Dec-11 05:00N 38°52' W 076°25'0 0.0
2017-Dec-11 04:30N 38°52' W 076°25'0 0.0
2017-Dec-11 04:00N 38°52' W 076°25'0 0.0
2017-Dec-11 03:29N 38°52' W 076°25'0 0.0
2017-Dec-11 03:00N 38°52' W 076°25'0 0.0
2017-Dec-11 02:29N 38°52' W 076°25'0 0.0
2017-Dec-11 01:59N 38°52' W 076°25'0 0.0
2017-Dec-11 01:29N 38°52' W 076°25'0 0.0
2017-Dec-11 00:59N 38°52' W 076°25'0 0.2
2017-Dec-11 00:30N 38°52' W 076°25'0 0.3
2017-Dec-11 00:00N 38°52' W 076°25'0 0.1
2017-Dec-10 23:30N 38°52' W 076°25'0 0.1
2017-Dec-10 22:59N 38°52' W 076°25'0 0.0
2017-Dec-10 21:44N 38°52' W 076°25'0 0.0
2017-Dec-10 21:29N 38°52' W 076°25'0 0.1
2017-Dec-10 20:59N 38°52' W 076°25'0 0.1
2017-Dec-10 20:30N 38°52' W 076°25'0 0.1
2017-Dec-10 19:59N 38°52' W 076°25'0 0.0
2017-Dec-10 19:29N 38°52' W 076°25'0 0.1
2017-Dec-10 19:00N 38°52' W 076°25'0 0.0
2017-Dec-10 18:29N 38°52' W 076°25'0 0.1
2017-Dec-10 17:59N 38°52' W 076°25'0 0.1
2017-Dec-10 17:29N 38°52' W 076°25'0 0.1
2017-Dec-10 17:00N 38°52' W 076°25'0 0.0
2017-Dec-10 16:26N 38°52' W 076°25'0 0.1
2017-Dec-10 15:59N 38°52' W 076°25'0 0.0
2017-Dec-10 15:29N 38°52' W 076°25'0 0.0
2017-Dec-10 14:59N 38°52' W 076°25'0 0.0
2017-Dec-10 14:29N 38°52' W 076°25'0 0.0
2017-Dec-10 13:59N 38°52' W 076°25'0 0.1
2017-Dec-10 13:29N 38°52' W 076°25'0 0.0
2017-Dec-10 12:59N 38°52' W 076°25'0 0.0
2017-Dec-10 12:29N 38°52' W 076°25'0 0.0
2017-Dec-10 11:59N 38°52' W 076°25'0 0.1
2017-Dec-10 11:29N 38°52' W 076°25'0 0.1
2017-Dec-10 10:59N 38°52' W 076°25'0 0.0
2017-Dec-10 10:29N 38°52' W 076°25'0 0.0
2017-Dec-10 09:59N 38°52' W 076°25'0 0.0
2017-Dec-10 09:29N 38°52' W 076°25'0 0.0
2017-Dec-10 08:59N 38°52' W 076°25'0 0.0
2017-Dec-10 08:29N 38°52' W 076°25'0 0.1
2017-Dec-10 07:59N 38°52' W 076°25'0 0.0
2017-Dec-10 07:30N 38°52' W 076°25'0 0.0
2017-Dec-10 06:59N 38°52' W 076°25'0 0.1
2017-Dec-10 06:29N 38°52' W 076°25'0 0.1
2017-Dec-10 05:59N 38°52' W 076°25'0 0.0
2017-Dec-10 05:26N 38°52' W 076°25'0 0.0
2017-Dec-10 04:59N 38°52' W 076°25'0 0.1
2017-Dec-10 04:29N 38°52' W 076°25'0 0.0
2017-Dec-10 03:59N 38°52' W 076°25'0 0.0
2017-Dec-10 03:29N 38°52' W 076°25'0 0.1
2017-Dec-10 02:59N 38°52' W 076°25'0 0.1
2017-Dec-10 02:29N 38°52' W 076°25'0 0.1
2017-Dec-10 01:59N 38°52' W 076°25'0 0.1
2017-Dec-10 01:29N 38°52' W 076°25'0 0.0
2017-Dec-09 23:44N 38°52' W 076°25'0 0.1
2017-Dec-09 23:29N 38°52' W 076°25'0 0.0
2017-Dec-09 22:14N 38°52' W 076°25'0 0.0
2017-Dec-09 20:44N 38°52' W 076°25'0 0.0
2017-Dec-09 20:17N 38°52' W 076°25'0 0.0
2017-Dec-09 19:56N 38°52' W 076°25'0 0.0
2017-Dec-09 19:29N 38°52' W 076°25'0 0.0
2017-Dec-09 18:59N 38°52' W 076°25'0 0.0
2017-Dec-09 18:17N 38°52' W 076°25'0 0.0
2017-Dec-09 17:59N 38°52' W 076°25'0 0.0
2017-Dec-09 17:29N 38°52' W 076°25'0 0.0
2017-Dec-09 15:53N 38°52' W 076°25'0 0.2
2017-Dec-09 15:23N 38°52' W 076°25'0 0.2
2017-Dec-09 14:59N 38°52' W 076°25'0 0.0
2017-Dec-09 14:29N 38°52' W 076°25'0 0.0
2017-Dec-09 13:59N 38°52' W 076°25'0 0.0
2017-Dec-09 13:29N 38°52' W 076°25'0 0.1
2017-Dec-09 12:59N 38°52' W 076°25'0 0.1
2017-Dec-09 12:29N 38°52' W 076°25'0 0.0
2017-Dec-09 11:56N 38°52' W 076°25'0 0.0
2017-Dec-09 11:29N 38°52' W 076°25'0 0.1
2017-Dec-09 10:59N 38°52' W 076°25'0 0.0
2017-Dec-09 10:29N 38°52' W 076°25'0 0.0
2017-Dec-09 10:00N 38°52' W 076°25'0 0.0
2017-Dec-09 09:29N 38°52' W 076°25'0 0.0
2017-Dec-09 08:59N 38°52' W 076°25'0 0.0
2017-Dec-09 08:23N 38°52' W 076°25'0 0.0
2017-Dec-09 07:59N 38°52' W 076°25'0 0.0
2017-Dec-09 07:29N 38°52' W 076°25'0 0.1
2017-Dec-09 06:59N 38°52' W 076°25'0 0.0
2017-Dec-09 06:29N 38°52' W 076°25'0 0.1
2017-Dec-09 05:59N 38°52' W 076°25'0 0.1
2017-Dec-09 05:26N 38°52' W 076°25'0 0.2
2017-Dec-09 04:59N 38°52' W 076°25'0 0.2
2017-Dec-09 04:29N 38°52' W 076°25'0 0.1
2017-Dec-09 03:59N 38°52' W 076°25'0 0.0
2017-Dec-09 03:29N 38°52' W 076°25'0 0.0
2017-Dec-09 02:59N 38°52' W 076°25'0 0.0
2017-Dec-09 02:29N 38°52' W 076°25'0 0.0
2017-Dec-09 01:59N 38°52' W 076°25'0 0.0
2017-Dec-09 01:29N 38°52' W 076°25'0 0.0
2017-Dec-09 00:59N 38°52' W 076°25'0 0.0
2017-Dec-09 00:29N 38°52' W 076°25'0 0.0
2017-Dec-08 23:59N 38°52' W 076°25'0 0.0
2017-Dec-08 23:29N 38°52' W 076°25'0 0.2
2017-Dec-08 22:59N 38°52' W 076°25'0 0.2
2017-Dec-08 22:29N 38°52' W 076°25'0 0.2
2017-Dec-08 21:59N 38°52' W 076°25'0 0.1
2017-Dec-08 21:29N 38°52' W 076°25'0 0.0
2017-Dec-08 20:50N 38°52' W 076°25'0 0.0
2017-Dec-08 20:29N 38°52' W 076°25'0 0.0
2017-Dec-08 19:59N 38°52' W 076°25'0 0.0
2017-Dec-08 19:29N 38°52' W 076°25'0 0.0
2017-Dec-08 17:23N 38°52' W 076°25'0 0.0
2017-Dec-08 16:53N 38°52' W 076°25'0 0.0
2017-Dec-08 15:02N 38°52' W 076°25'0 0.2
2017-Dec-08 14:59N 38°52' W 076°25'0 0.0
2017-Dec-08 14:29N 38°52' W 076°25'0 0.1
2017-Dec-08 13:59N 38°52' W 076°25'0 0.1
2017-Dec-08 13:23N 38°52' W 076°25'0 0.0
2017-Dec-08 11:47N 38°52' W 076°25'0 0.0
2017-Dec-08 10:29N 38°52' W 076°25'0 0.0
2017-Dec-08 09:53N 38°52' W 076°25'0 0.0
2017-Dec-08 08:53N 38°52' W 076°25'0 0.0
2017-Dec-08 08:26N 38°52' W 076°25'0 0.0
2017-Dec-08 07:59N 38°52' W 076°25'0 0.0
2017-Dec-08 06:44N 38°52' W 076°25'0 0.0
2017-Dec-08 05:53N 38°52' W 076°25'0 0.0
2017-Dec-08 05:29N 38°52' W 076°25'0 0.1
2017-Dec-08 04:56N 38°52' W 076°25'0 0.2
2017-Dec-08 04:29N 38°52' W 076°25'0 0.2
2017-Dec-08 03:56N 38°52' W 076°25'0 0.1
2017-Dec-08 03:26N 38°52' W 076°25'0 0.1
2017-Dec-08 02:59N 38°52' W 076°25'0 0.0
2017-Dec-08 02:29N 38°52' W 076°25'0 0.0
2017-Dec-08 01:59N 38°52' W 076°25'0 0.0
2017-Dec-08 01:29N 38°52' W 076°25'0 0.0
2017-Dec-08 00:59N 38°52' W 076°25'0 0.0
2017-Dec-08 00:29N 38°52' W 076°25'0 0.0
2017-Dec-07 23:59N 38°52' W 076°25'0 0.1
2017-Dec-07 23:29N 38°52' W 076°25'0 0.1
2017-Dec-07 22:59N 38°52' W 076°25'0 0.4
2017-Dec-07 22:29N 38°52' W 076°25'0 0.1
2017-Dec-07 21:59N 38°52' W 076°25'0 0.0
2017-Dec-07 21:11N 38°52' W 076°25'0 0.1
2017-Dec-07 20:59N 38°52' W 076°25'0 0.0
2017-Dec-07 20:29N 38°52' W 076°25'0 0.0
2017-Dec-07 19:59N 38°52' W 076°25'0 0.0
2017-Dec-07 19:23N 38°52' W 076°25'0 0.0
2017-Dec-07 18:59N 38°52' W 076°25'0 0.0
2017-Dec-07 18:20N 38°52' W 076°25'0 0.1
2017-Dec-07 17:56N 38°52' W 076°25'0 0.0
2017-Dec-07 17:29N 38°52' W 076°25'0 0.0
2017-Dec-07 16:59N 38°52' W 076°25'0 0.0
2017-Dec-07 16:29N 38°52' W 076°25'0 0.0
2017-Dec-07 15:59N 38°52' W 076°25'0 0.0
2017-Dec-07 15:26N 38°52' W 076°25'0 0.1
2017-Dec-07 14:59N 38°52' W 076°25'0 0.0
2017-Dec-07 14:29N 38°52' W 076°25'0 0.0
2017-Dec-07 13:47N 38°52' W 076°25'0 0.0
2017-Dec-07 13:29N 38°52' W 076°25'0 0.0
2017-Dec-07 12:59N 38°52' W 076°25'0 0.0
2017-Dec-07 12:29N 38°52' W 076°25'0 0.0
2017-Dec-07 11:59N 38°52' W 076°25'0 0.0
2017-Dec-07 11:29N 38°52' W 076°25'0 0.0
2017-Dec-07 10:59N 38°52' W 076°25'0 0.1
2017-Dec-07 10:29N 38°52' W 076°25'0 0.1
2017-Dec-07 09:59N 38°52' W 076°25'0 0.1
2017-Dec-07 09:29N 38°52' W 076°25'0 0.0
2017-Dec-07 08:59N 38°52' W 076°25'0 0.0
2017-Dec-07 08:26N 38°52' W 076°25'0 0.0
2017-Dec-07 07:05N 38°52' W 076°25'0 0.1
2017-Dec-07 06:53N 38°52' W 076°25'0 0.0
2017-Dec-07 06:29N 38°52' W 076°25'0 0.1
2017-Dec-07 05:59N 38°52' W 076°25'0 0.1
2017-Dec-07 05:23N 38°52' W 076°25'0 0.1
2017-Dec-07 04:59N 38°52' W 076°25'0 0.1
2017-Dec-07 04:29N 38°52' W 076°25'0 0.1
2017-Dec-07 03:59N 38°52' W 076°25'0 0.1
2017-Dec-07 03:29N 38°52' W 076°25'0 0.0
2017-Dec-07 02:59N 38°52' W 076°25'0 0.0
2017-Dec-07 02:29N 38°52' W 076°25'0 0.0
2017-Dec-07 01:59N 38°52' W 076°25'0 0.0
2017-Dec-07 01:29N 38°52' W 076°25'0 0.0
2017-Dec-07 00:59N 38°52' W 076°25'  
Track history (hours):
 
Tides and Currents Weather Stations Pressure Air Temp Water Temp Dewpoint Dewpoint Depression Visibility Wind Speed Wind Dir Waves Ship Positions

Regina Oldendorff

Last reported at 2017-Dec-17 00:34 UTC. Time now 2017-Dec-18 12:52 UTC.
Position N 36°51' W 075°49'.

Length 260 m; draft 14.4 m.

Type: Cargo ship. MMSI: 255805910.

Date/timePositionNaut miles runAvg speedWind from/ knotsBaromVisibWave heightAir tempDewpointWater temp
2017-Dec-17 00:34N 36°51' W 075°49'1 6.5
2017-Dec-17 00:23N 36°51' W 075°51'2 6.1
2017-Dec-17 00:00N 36°53' W 075°53'3 5.9
2017-Dec-16 23:30N 36°55' W 075°55'3 5.9
2017-Dec-16 23:00N 36°56' W 075°59'3 6.0
2017-Dec-16 22:30N 36°59' W 076°00'3 6.3
2017-Dec-16 22:00N 37°01' W 076°03'3 7.0
2017-Dec-16 21:30N 37°04' W 076°06'56 8.1
2017-Dec-16 14:33N 38°00' W 076°12'311.2
2017-Dec-16 14:15N 38°03' W 076°13'4311.7
2017-Dec-16 10:34N 38°45' W 076°26'112.1
2017-Dec-16 10:30N 38°46' W 076°26'611.7
2017-Dec-16 10:00N 38°52' W 076°24'611.4
2017-Dec-16 09:30N 38°57' W 076°23'4 8.4
2017-Dec-16 09:00N 39°01' W 076°23'4 7.6
2017-Dec-16 08:30N 39°05' W 076°24'3 6.5
2017-Dec-16 08:00N 39°08' W 076°24'4 7.3
2017-Dec-16 07:30N 39°11' W 076°27'4 7.4
2017-Dec-16 07:00N 39°13' W 076°32'3 5.8
2017-Dec-16 06:30N 39°15' W 076°34'0 0.5
2017-Dec-16 06:00N 39°15' W 076°34'0 0.0
2017-Dec-16 05:30N 39°15' W 076°34'0 0.0
2017-Dec-16 05:00N 39°15' W 076°34'0 0.0
2017-Dec-16 04:30N 39°15' W 076°34'0 0.0
2017-Dec-16 04:00N 39°15' W 076°34'0 0.0
2017-Dec-16 03:30N 39°15' W 076°34'0 0.0
2017-Dec-16 03:00N 39°15' W 076°34'0 0.0
2017-Dec-16 02:30N 39°15' W 076°34'0 0.0
2017-Dec-16 02:00N 39°15' W 076°34'0 0.0
2017-Dec-16 01:30N 39°15' W 076°34'0 0.0
2017-Dec-16 01:00N 39°15' W 076°34'0 0.0
2017-Dec-16 00:30N 39°15' W 076°34'0 0.0
2017-Dec-16 00:00N 39°15' W 076°34'0 0.0
2017-Dec-15 23:27N 39°15' W 076°34'0 0.0
2017-Dec-15 23:00N 39°15' W 076°34'0 0.0
2017-Dec-15 22:30N 39°15' W 076°34'0 0.0
2017-Dec-15 22:00N 39°15' W 076°34'0 0.0
2017-Dec-15 21:30N 39°15' W 076°34'0 0.0
2017-Dec-15 21:00N 39°15' W 076°34'0 0.0
2017-Dec-15 20:30N 39°15' W 076°34'0 0.0
2017-Dec-15 20:00N 39°15' W 076°34'0 0.0
2017-Dec-15 19:30N 39°15' W 076°34'0 0.0
2017-Dec-15 19:00N 39°15' W 076°34'0 0.0
2017-Dec-15 18:30N 39°15' W 076°34'0 0.0
2017-Dec-15 18:00N 39°15' W 076°34'0 0.0
2017-Dec-15 17:30N 39°15' W 076°34'0 0.0
2017-Dec-15 17:00N 39°15' W 076°34'0 0.0
2017-Dec-15 16:30N 39°15' W 076°34'0 0.0
2017-Dec-15 16:00N 39°15' W 076°34'0 0.0
2017-Dec-15 15:30N 39°15' W 076°34'0 0.0
2017-Dec-15 15:00N 39°15' W 076°34'0 0.0
2017-Dec-15 14:30N 39°15' W 076°34'0 0.0
2017-Dec-15 14:00N 39°15' W 076°34'0 0.0
2017-Dec-15 13:30N 39°15' W 076°34'0 0.0
2017-Dec-15 13:00N 39°15' W 076°34'0 0.0
2017-Dec-15 12:30N 39°15' W 076°34'0 0.0
2017-Dec-15 12:00N 39°15' W 076°34'0 0.0
2017-Dec-15 11:30N 39°15' W 076°34'0 0.0
2017-Dec-15 11:00N 39°15' W 076°34'0 0.0
2017-Dec-15 10:30N 39°15' W 076°34'0 0.0
2017-Dec-15 10:00N 39°15' W 076°34'0 0.0
2017-Dec-15 09:30N 39°15' W 076°34'0 0.0
2017-Dec-15 09:00N 39°15' W 076°34'0 0.0
2017-Dec-15 08:30N 39°15' W 076°34'0 0.0
2017-Dec-15 08:00N 39°15' W 076°34'0 0.0
2017-Dec-15 07:30N 39°15' W 076°34'0 0.0
2017-Dec-15 07:00N 39°15' W 076°34'0 0.0
2017-Dec-15 06:30N 39°15' W 076°34'0 0.0
2017-Dec-15 06:00N 39°15' W 076°34'0 0.0
2017-Dec-15 05:30N 39°15' W 076°34'0 0.0
2017-Dec-15 05:00N 39°15' W 076°34'0 0.0
2017-Dec-15 04:30N 39°15' W 076°34'0 0.0
2017-Dec-15 04:00N 39°15' W 076°34'0 0.0
2017-Dec-15 02:30N 39°15' W 076°34'0 0.0
2017-Dec-15 01:00N 39°15' W 076°34'0 0.0
2017-Dec-15 00:30N 39°15' W 076°34'0 0.0
2017-Dec-14 18:30N 39°15' W 076°34'0 0.0
2017-Dec-14 18:00N 39°15' W 076°34'0 0.0
2017-Dec-14 17:30N 39°15' W 076°34'0 0.0
2017-Dec-14 17:00N 39°15' W 076°34'0 0.0
2017-Dec-14 16:30N 39°15' W 076°34'0 0.0
2017-Dec-14 16:00N 39°15' W 076°34'0 0.0
2017-Dec-14 15:00N 39°15' W 076°34'0 0.0
2017-Dec-14 14:30N 39°15' W 076°34'0 0.0
2017-Dec-14 14:00N 39°15' W 076°34'0 0.0
2017-Dec-14 13:30N 39°15' W 076°34'0 0.0
2017-Dec-14 13:00N 39°15' W 076°34'0 0.0
2017-Dec-14 12:30N 39°15' W 076°34'0 0.0
2017-Dec-14 12:00N 39°15' W 076°34'0 0.0
2017-Dec-14 11:30N 39°15' W 076°34'0 0.4
2017-Dec-14 11:00N 39°15' W 076°34'2 3.1
2017-Dec-14 10:31N 39°14' W 076°33'3 6.5
2017-Dec-14 10:00N 39°12' W 076°30'612.1
2017-Dec-14 09:31N 39°08' W 076°24'713.3
2017-Dec-14 09:01N 39°01' W 076°22'714.1
2017-Dec-14 08:30N 38°54' W 076°24'2 4.7
2017-Dec-14 08:00N 38°52' W 076°25'0 0.1
2017-Dec-14 07:30N 38°52' W 076°25'0 0.0
2017-Dec-14 07:00N 38°52' W 076°25'0 0.0
2017-Dec-14 06:30N 38°52' W 076°25'0 0.0
2017-Dec-14 06:00N 38°52' W 076°25'0 0.0
2017-Dec-14 05:30N 38°52' W 076°25'0 0.0
2017-Dec-14 05:00N 38°52' W 076°25'0 0.0
2017-Dec-14 04:30N 38°52' W 076°25'0 0.0
2017-Dec-14 04:00N 38°52' W 076°25'0 0.0
2017-Dec-14 03:30N 38°52' W 076°25'0 0.0
2017-Dec-14 03:00N 38°52' W 076°25'0 0.0
2017-Dec-14 02:30N 38°52' W 076°25'0 0.0
2017-Dec-14 02:00N 38°52' W 076°25'0 0.0
2017-Dec-14 01:30N 38°52' W 076°25'0 0.1
2017-Dec-14 01:00N 38°52' W 076°25'0 0.1
2017-Dec-14 00:30N 38°52' W 076°25'0 0.0
2017-Dec-14 00:00N 38°52' W 076°25'0 0.0
2017-Dec-13 23:30N 38°52' W 076°25'0 0.1
2017-Dec-13 23:00N 38°52' W 076°25'0 0.0
2017-Dec-13 22:30N 38°52' W 076°25'0 0.0
2017-Dec-13 22:00N 38°52' W 076°25'0 0.1
2017-Dec-13 21:30N 38°52' W 076°25'0 0.1
2017-Dec-13 21:00N 38°52' W 076°25'0 0.0
2017-Dec-13 20:30N 38°52' W 076°25'0 0.1
2017-Dec-13 20:00N 38°52' W 076°25'0 0.0
2017-Dec-13 19:27N 38°52' W 076°25'0 0.1
2017-Dec-13 19:00N 38°52' W 076°25'0 0.0
2017-Dec-13 18:30N 38°52' W 076°25'0 0.1
2017-Dec-13 18:00N 38°52' W 076°25'0 0.0
2017-Dec-13 17:30N 38°52' W 076°25'0 0.0
2017-Dec-13 17:00N 38°52' W 076°25'0 0.0
2017-Dec-13 16:30N 38°52' W 076°25'0 0.1
2017-Dec-13 16:00N 38°52' W 076°25'0 0.0
2017-Dec-13 15:30N 38°52' W 076°25'0 0.0
2017-Dec-13 15:00N 38°52' W 076°25'0 0.1
2017-Dec-13 14:27N 38°52' W 076°25'0 0.0
2017-Dec-13 14:00N 38°52' W 076°25'0 0.0
2017-Dec-13 13:30N 38°52' W 076°25'0 0.1
2017-Dec-13 13:00N 38°52' W 076°25'0 0.0
2017-Dec-13 12:27N 38°52' W 076°25'0 0.0
2017-Dec-13 11:54N 38°52' W 076°25'0 0.0
2017-Dec-13 11:27N 38°52' W 076°25'0 0.0
2017-Dec-13 11:00N 38°52' W 076°25'0 0.0
2017-Dec-13 10:30N 38°52' W 076°25'0 0.0
2017-Dec-13 09:57N 38°52' W 076°25'0 0.0
2017-Dec-13 09:27N 38°52' W 076°25'0 0.0
2017-Dec-13 08:54N 38°52' W 076°25'0 0.0
2017-Dec-13 08:30N 38°52' W 076°25'0 0.0
2017-Dec-13 08:00N 38°52' W 076°25'0 0.0
2017-Dec-13 07:30N 38°52' W 076°25'0 0.0
2017-Dec-13 07:00N 38°52' W 076°25'0 0.0
2017-Dec-13 06:30N 38°52' W 076°25'0 0.0
2017-Dec-13 06:00N 38°52' W 076°25'0 0.0
2017-Dec-13 05:30N 38°52' W 076°25'0 0.0
2017-Dec-13 05:00N 38°52' W 076°25'0 0.0
2017-Dec-13 04:30N 38°52' W 076°25'0 0.0
2017-Dec-13 04:00N 38°52' W 076°25'0 0.0
2017-Dec-13 03:24N 38°52' W 076°25'0 0.1
2017-Dec-13 03:00N 38°52' W 076°25'0 0.0
2017-Dec-13 02:30N 38°52' W 076°25'0 0.0
2017-Dec-13 02:00N 38°52' W 076°25'0 0.0
2017-Dec-13 01:30N 38°52' W 076°25'0 0.0
2017-Dec-13 00:54N 38°52' W 076°25'0 0.0
2017-Dec-13 00:30N 38°52' W 076°25'0 0.0
2017-Dec-13 00:00N 38°52' W 076°25'0 0.0
2017-Dec-12 23:30N 38°52' W 076°25'0 0.0
2017-Dec-12 23:00N 38°52' W 076°25'0 0.0
2017-Dec-12 22:30N 38°52' W 076°25'0 0.0
2017-Dec-12 22:00N 38°52' W 076°25'0 0.1
2017-Dec-12 21:30N 38°52' W 076°25'0 0.0
2017-Dec-12 21:00N 38°52' W 076°25'0 0.1
2017-Dec-12 20:30N 38°52' W 076°25'0 0.1
2017-Dec-12 20:00N 38°52' W 076°25'0 0.0
2017-Dec-12 19:30N 38°52' W 076°25'0 0.2
2017-Dec-12 19:00N 38°52' W 076°25'0 0.2
2017-Dec-12 18:30N 38°52' W 076°25'0 0.0
2017-Dec-12 18:00N 38°52' W 076°25'0 0.0
2017-Dec-12 17:30N 38°52' W 076°25'0 0.0
2017-Dec-12 17:00N 38°52' W 076°25'0 0.0
2017-Dec-12 16:30N 38°52' W 076°25'0 0.0
2017-Dec-12 16:00N 38°52' W 076°25'0 0.0
2017-Dec-12 15:30N 38°52' W 076°25'0 0.0
2017-Dec-12 15:00N 38°52' W 076°25'0 0.1
2017-Dec-12 14:30N 38°52' W 076°25'0 0.1
2017-Dec-12 14:00N 38°52' W 076°25'0 0.0
2017-Dec-12 13:30N 38°52' W 076°25'0 0.0
2017-Dec-12 13:00N 38°52' W 076°25'0 0.1
2017-Dec-12 12:30N 38°52' W 076°25'0 0.0
2017-Dec-12 12:00N 38°52' W 076°25'0 0.0
2017-Dec-12 11:30N 38°52' W 076°25'0 0.0
2017-Dec-12 11:00N 38°52' W 076°25'0 0.0
2017-Dec-12 10:30N 38°52' W 076°25'0 0.0
2017-Dec-12 10:00N 38°52' W 076°25'0 0.0
2017-Dec-12 09:30N 38°52' W 076°25'0 0.0
2017-Dec-12 09:00N 38°52' W 076°25'0 0.0
2017-Dec-12 08:30N 38°52' W 076°25'0 0.0
2017-Dec-12 08:00N 38°52' W 076°25'0 0.0
2017-Dec-12 07:30N 38°52' W 076°25'0 0.0
2017-Dec-12 07:00N 38°52' W 076°25'0 0.0
2017-Dec-12 06:30N 38°52' W 076°25'0 0.0
2017-Dec-12 06:00N 38°52' W 076°25'0 0.0
2017-Dec-12 05:30N 38°52' W 076°25'0 0.0
2017-Dec-12 05:00N 38°52' W 076°25'0 0.0
2017-Dec-12 04:30N 38°52' W 076°25'0 0.0
2017-Dec-12 04:00N 38°52' W 076°25'0 0.0
2017-Dec-12 03:30N 38°52' W 076°25'0 0.0
2017-Dec-12 03:00N 38°52' W 076°25'0 0.0
2017-Dec-12 02:30N 38°52' W 076°25'0 0.0
2017-Dec-12 01:57N 38°52' W 076°25'0 0.2
2017-Dec-12 01:30N 38°52' W 076°25'0 0.1
2017-Dec-12 01:00N 38°52' W 076°25'0 0.0
2017-Dec-12 00:30N 38°52' W 076°25'0 0.1
2017-Dec-12 00:00N 38°52' W 076°25'0 0.1
2017-Dec-11 23:24N 38°52' W 076°25'0 0.1
2017-Dec-11 23:00N 38°52' W 076°25'0 0.2
2017-Dec-11 22:30N 38°52' W 076°25'0 0.1
2017-Dec-11 21:45N 38°52' W 076°25'0 0.1
2017-Dec-11 21:30N 38°52' W 076°25'0 0.1
2017-Dec-11 21:00N 38°52' W 076°25'0 0.1
2017-Dec-11 20:30N 38°52' W 076°25'0 0.1
2017-Dec-11 20:00N 38°52' W 076°25'0 0.1
2017-Dec-11 19:30N 38°52' W 076°25'0 0.1
2017-Dec-11 19:00N 38°52' W 076°25'0 0.1
2017-Dec-11 18:30N 38°52' W 076°25'0 0.0
2017-Dec-11 18:00N 38°52' W 076°25'0 0.0
2017-Dec-11 17:30N 38°52' W 076°25'0 0.0
2017-Dec-11 17:00N 38°52' W 076°25'0 0.1
2017-Dec-11 16:30N 38°52' W 076°25'0 0.1
2017-Dec-11 16:00N 38°52' W 076°25'0 0.3
2017-Dec-11 15:30N 38°52' W 076°25'0 0.2
2017-Dec-11 14:57N 38°52' W 076°25'0 0.1
2017-Dec-11 14:21N 38°52' W 076°25'0 0.0
2017-Dec-11 13:59N 38°52' W 076°25'0 0.0
2017-Dec-11 13:21N 38°52' W 076°25'0 0.1
2017-Dec-11 12:57N 38°52' W 076°25'0 0.0
2017-Dec-11 12:30N 38°52' W 076°25'0 0.0
2017-Dec-11 12:00N 38°52' W 076°25'0 0.0
2017-Dec-11 11:30N 38°52' W 076°25'0 0.0
2017-Dec-11 10:57N 38°52' W 076°25'0 0.0
2017-Dec-11 10:24N 38°52' W 076°25'0 0.0
2017-Dec-11 09:54N 38°52' W 076°25'0 0.0
2017-Dec-11 09:30N 38°52' W 076°25'0 0.0
2017-Dec-11 08:57N 38°52' W 076°25'0 0.1
2017-Dec-11 08:30N 38°52' W 076°25'0 0.2
2017-Dec-11 07:59N 38°52' W 076°25'0 0.1
2017-Dec-11 07:29N 38°52' W 076°25'0 0.2
2017-Dec-11 06:59N 38°52' W 076°25'0 0.0
2017-Dec-11 06:30N 38°52' W 076°25'0 0.1
2017-Dec-11 06:00N 38°52' W 076°25'0 0.0
2017-Dec-11 05:29N 38°52' W 076°25'0 0.0
2017-Dec-11 05:00N 38°52' W 076°25'0 0.0
2017-Dec-11 04:30N 38°52' W 076°25'0 0.0
2017-Dec-11 04:00N 38°52' W 076°25'0 0.0
2017-Dec-11 03:29N 38°52' W 076°25'0 0.0
2017-Dec-11 03:00N 38°52' W 076°25'0 0.0
2017-Dec-11 02:29N 38°52' W 076°25'0 0.0
2017-Dec-11 01:59N 38°52' W 076°25'0 0.0
2017-Dec-11 01:29N 38°52' W 076°25'0 0.0
2017-Dec-11 00:59N 38°52' W 076°25'0 0.2
2017-Dec-11 00:30N 38°52' W 076°25'0 0.3
2017-Dec-11 00:00N 38°52' W 076°25'0 0.1
2017-Dec-10 23:30N 38°52' W 076°25'0 0.1
2017-Dec-10 22:59N 38°52' W 076°25'0 0.0
2017-Dec-10 21:44N 38°52' W 076°25'0 0.0
2017-Dec-10 21:29N 38°52' W 076°25'0 0.1
2017-Dec-10 20:59N 38°52' W 076°25'0 0.1
2017-Dec-10 20:30N 38°52' W 076°25'0 0.1
2017-Dec-10 19:59N 38°52' W 076°25'0 0.0
2017-Dec-10 19:29N 38°52' W 076°25'0 0.1
2017-Dec-10 19:00N 38°52' W 076°25'0 0.0
2017-Dec-10 18:29N 38°52' W 076°25'0 0.1
2017-Dec-10 17:59N 38°52' W 076°25'0 0.1
2017-Dec-10 17:29N 38°52' W 076°25'0 0.1
2017-Dec-10 17:00N 38°52' W 076°25'0 0.0
2017-Dec-10 16:26N 38°52' W 076°25'0 0.1
2017-Dec-10 15:59N 38°52' W 076°25'0 0.0
2017-Dec-10 15:29N 38°52' W 076°25'0 0.0
2017-Dec-10 14:59N 38°52' W 076°25'0 0.0
2017-Dec-10 14:29N 38°52' W 076°25'0 0.0
2017-Dec-10 13:59N 38°52' W 076°25'0 0.1
2017-Dec-10 13:29N 38°52' W 076°25'0 0.0
2017-Dec-10 12:59N 38°52' W 076°25'0 0.0
2017-Dec-10 12:29N 38°52' W 076°25'0 0.0
2017-Dec-10 11:59N 38°52' W 076°25'0 0.1
2017-Dec-10 11:29N 38°52' W 076°25'0 0.1
2017-Dec-10 10:59N 38°52' W 076°25'0 0.0
2017-Dec-10 10:29N 38°52' W 076°25'0 0.0
2017-Dec-10 09:59N 38°52' W 076°25'0 0.0
2017-Dec-10 09:29N 38°52' W 076°25'0 0.0
2017-Dec-10 08:59N 38°52' W 076°25'0 0.0
2017-Dec-10 08:29N 38°52' W 076°25'0 0.1
2017-Dec-10 07:59N 38°52' W 076°25'0 0.0
2017-Dec-10 07:30N 38°52' W 076°25'0 0.0
2017-Dec-10 06:59N 38°52' W 076°25'0 0.1
2017-Dec-10 06:29N 38°52' W 076°25'0 0.1
2017-Dec-10 05:59N 38°52' W 076°25'0 0.0
2017-Dec-10 05:26N 38°52' W 076°25'0 0.0
2017-Dec-10 04:59N 38°52' W 076°25'0 0.1
2017-Dec-10 04:29N 38°52' W 076°25'0 0.0
2017-Dec-10 03:59N 38°52' W 076°25'0 0.0
2017-Dec-10 03:29N 38°52' W 076°25'0 0.1
2017-Dec-10 02:59N 38°52' W 076°25'0 0.1
2017-Dec-10 02:29N 38°52' W 076°25'0 0.1
2017-Dec-10 01:59N 38°52' W 076°25'0 0.1
2017-Dec-10 01:29N 38°52' W 076°25'0 0.0
2017-Dec-09 23:44N 38°52' W 076°25'0 0.1
2017-Dec-09 23:29N 38°52' W 076°25'0 0.0
2017-Dec-09 22:14N 38°52' W 076°25'0 0.0
2017-Dec-09 20:44N 38°52' W 076°25'0 0.0
2017-Dec-09 20:17N 38°52' W 076°25'0 0.0
2017-Dec-09 19:56N 38°52' W 076°25'0 0.0
2017-Dec-09 19:29N 38°52' W 076°25'0 0.0
2017-Dec-09 18:59N 38°52' W 076°25'0 0.0
2017-Dec-09 18:17N 38°52' W 076°25'0 0.0
2017-Dec-09 17:59N 38°52' W 076°25'0 0.0
2017-Dec-09 17:29N 38°52' W 076°25'0 0.0
2017-Dec-09 15:53N 38°52' W 076°25'0 0.2
2017-Dec-09 15:23N 38°52' W 076°25'0 0.2
2017-Dec-09 14:59N 38°52' W 076°25'0 0.0
2017-Dec-09 14:29N 38°52' W 076°25'0 0.0
2017-Dec-09 13:59N 38°52' W 076°25'0 0.0
2017-Dec-09 13:29N 38°52' W 076°25'0 0.1
2017-Dec-09 12:59N 38°52' W 076°25'0 0.1
2017-Dec-09 12:29N 38°52' W 076°25'0 0.0
2017-Dec-09 11:56N 38°52' W 076°25'0 0.0
2017-Dec-09 11:29N 38°52' W 076°25'0 0.1
2017-Dec-09 10:59N 38°52' W 076°25'0 0.0
2017-Dec-09 10:29N 38°52' W 076°25'0 0.0
2017-Dec-09 10:00N 38°52' W 076°25'0 0.0
2017-Dec-09 09:29N 38°52' W 076°25'0 0.0
2017-Dec-09 08:59N 38°52' W 076°25'0 0.0
2017-Dec-09 08:23N 38°52' W 076°25'0 0.0
2017-Dec-09 07:59N 38°52' W 076°25'0 0.0
2017-Dec-09 07:29N 38°52' W 076°25'0 0.1
2017-Dec-09 06:59N 38°52' W 076°25'0 0.0
2017-Dec-09 06:29N 38°52' W 076°25'0 0.1
2017-Dec-09 05:59N 38°52' W 076°25'0 0.1
2017-Dec-09 05:26N 38°52' W 076°25'0 0.2
2017-Dec-09 04:59N 38°52' W 076°25'0 0.2
2017-Dec-09 04:29N 38°52' W 076°25'0 0.1
2017-Dec-09 03:59N 38°52' W 076°25'0 0.0
2017-Dec-09 03:29N 38°52' W 076°25'0 0.0
2017-Dec-09 02:59N 38°52' W 076°25'0 0.0
2017-Dec-09 02:29N 38°52' W 076°25'0 0.0
2017-Dec-09 01:59N 38°52' W 076°25'0 0.0
2017-Dec-09 01:29N 38°52' W 076°25'0 0.0
2017-Dec-09 00:59N 38°52' W 076°25'0 0.0
2017-Dec-09 00:29N 38°52' W 076°25'0 0.0
2017-Dec-08 23:59N 38°52' W 076°25'0 0.0
2017-Dec-08 23:29N 38°52' W 076°25'0 0.2
2017-Dec-08 22:59N 38°52' W 076°25'0 0.2
2017-Dec-08 22:29N 38°52' W 076°25'0 0.2
2017-Dec-08 21:59N 38°52' W 076°25'0 0.1
2017-Dec-08 21:29N 38°52' W 076°25'0 0.0
2017-Dec-08 20:50N 38°52' W 076°25'0 0.0
2017-Dec-08 20:29N 38°52' W 076°25'0 0.0
2017-Dec-08 19:59N 38°52' W 076°25'0 0.0
2017-Dec-08 19:29N 38°52' W 076°25'0 0.0
2017-Dec-08 17:23N 38°52' W 076°25'0 0.0
2017-Dec-08 16:53N 38°52' W 076°25'0 0.0
2017-Dec-08 15:02N 38°52' W 076°25'0 0.2
2017-Dec-08 14:59N 38°52' W 076°25'0 0.0
2017-Dec-08 14:29N 38°52' W 076°25'0 0.1
2017-Dec-08 13:59N 38°52' W 076°25'0 0.1
2017-Dec-08 13:23N 38°52' W 076°25'0 0.0
2017-Dec-08 11:47N 38°52' W 076°25'0 0.0
2017-Dec-08 10:29N 38°52' W 076°25'0 0.0
2017-Dec-08 09:53N 38°52' W 076°25'0 0.0
2017-Dec-08 08:53N 38°52' W 076°25'0 0.0
2017-Dec-08 08:26N 38°52' W 076°25'0 0.0
2017-Dec-08 07:59N 38°52' W 076°25'0 0.0
2017-Dec-08 06:44N 38°52' W 076°25'0 0.0
2017-Dec-08 05:53N 38°52' W 076°25'0 0.0
2017-Dec-08 05:29N 38°52' W 076°25'0 0.1
2017-Dec-08 04:56N 38°52' W 076°25'0 0.2
2017-Dec-08 04:29N 38°52' W 076°25'0 0.2
2017-Dec-08 03:56N 38°52' W 076°25'0 0.1
2017-Dec-08 03:26N 38°52' W 076°25'0 0.1
2017-Dec-08 02:59N 38°52' W 076°25'0 0.0
2017-Dec-08 02:29N 38°52' W 076°25'0 0.0
2017-Dec-08 01:59N 38°52' W 076°25'0 0.0
2017-Dec-08 01:29N 38°52' W 076°25'0 0.0
2017-Dec-08 00:59N 38°52' W 076°25'0 0.0
2017-Dec-08 00:29N 38°52' W 076°25'0 0.0
2017-Dec-07 23:59N 38°52' W 076°25'0 0.1
2017-Dec-07 23:29N 38°52' W 076°25'0 0.1
2017-Dec-07 22:59N 38°52' W 076°25'0 0.4
2017-Dec-07 22:29N 38°52' W 076°25'0 0.1
2017-Dec-07 21:59N 38°52' W 076°25'0 0.0
2017-Dec-07 21:11N 38°52' W 076°25'0 0.1
2017-Dec-07 20:59N 38°52' W 076°25'0 0.0
2017-Dec-07 20:29N 38°52' W 076°25'0 0.0
2017-Dec-07 19:59N 38°52' W 076°25'0 0.0
2017-Dec-07 19:23N 38°52' W 076°25'0 0.0
2017-Dec-07 18:59N 38°52' W 076°25'0 0.0
2017-Dec-07 18:20N 38°52' W 076°25'0 0.1
2017-Dec-07 17:56N 38°52' W 076°25'0 0.0
2017-Dec-07 17:29N 38°52' W 076°25'0 0.0
2017-Dec-07 16:59N 38°52' W 076°25'0 0.0
2017-Dec-07 16:29N 38°52' W 076°25'0 0.0
2017-Dec-07 15:59N 38°52' W 076°25'0 0.0
2017-Dec-07 15:26N 38°52' W 076°25'0 0.1
2017-Dec-07 14:59N 38°52' W 076°25'0 0.0
2017-Dec-07 14:29N 38°52' W 076°25'0 0.0
2017-Dec-07 13:47N 38°52' W 076°25'0 0.0
2017-Dec-07 13:29N 38°52' W 076°25'0 0.0
2017-Dec-07 12:59N 38°52' W 076°25'0 0.0
2017-Dec-07 12:29N 38°52' W 076°25'0 0.0
2017-Dec-07 11:59N 38°52' W 076°25'0 0.0
2017-Dec-07 11:29N 38°52' W 076°25'0 0.0
2017-Dec-07 10:59N 38°52' W 076°25'0 0.1
2017-Dec-07 10:29N 38°52' W 076°25'0 0.1
2017-Dec-07 09:59N 38°52' W 076°25'0 0.1
2017-Dec-07 09:29N 38°52' W 076°25'0 0.0
2017-Dec-07 08:59N 38°52' W 076°25'0 0.0
2017-Dec-07 08:26N 38°52' W 076°25'0 0.0
2017-Dec-07 07:05N 38°52' W 076°25'0 0.1
2017-Dec-07 06:53N 38°52' W 076°25'0 0.0
2017-Dec-07 06:29N 38°52' W 076°25'0 0.1
2017-Dec-07 05:59N 38°52' W 076°25'0 0.1
2017-Dec-07 05:23N 38°52' W 076°25'0 0.1
2017-Dec-07 04:59N 38°52' W 076°25'0 0.1
2017-Dec-07 04:29N 38°52' W 076°25'0 0.1
2017-Dec-07 03:59N 38°52' W 076°25'0 0.1
2017-Dec-07 03:29N 38°52' W 076°25'0 0.0
2017-Dec-07 02:59N 38°52' W 076°25'0 0.0
2017-Dec-07 02:29N 38°52' W 076°25'0 0.0
2017-Dec-07 01:59N 38°52' W 076°25'0 0.0
2017-Dec-07 01:29N 38°52' W 076°25'0 0.0
2017-Dec-07 00:59N 38°52' W 076°25'  

Dump ship's entire track history